Time,TemperatureF,DewpointF,PressureIn,WindDirection,WindDirectionDegrees,WindSpeedMPH,WindSpeedGustMPH,Humidity,HourlyPrecipIn,Conditions,Clouds,dailyrainin,SoftwareType,DateUTC
2013-09-20 00:01:00,56.1,55.5,29.97,NNE,22,0.0,-999.0,98,-99.99,,,0.00,Acu-Link.com,2013-09-20 04:01:00,
2013-09-20 00:16:00,55.9,55.3,29.97,NW,315,0.0,-999.0,98,-99.99,,,0.00,Acu-Link.com,2013-09-20 04:16:00,
2013-09-20 00:31:00,55.9,55.3,29.97,NE,45,0.0,-999.0,98,-99.99,,,0.00,Acu-Link.com,2013-09-20 04:31:00,
2013-09-20 00:46:00,55.0,54.4,29.97,SSE,157,0.0,-999.0,98,-99.99,,,0.00,Acu-Link.com,2013-09-20 04:46:00,
2013-09-20 01:01:00,54.7,54.1,29.97,ESE,112,0.0,-999.0,98,-99.99,,,0.00,Acu-Link.com,2013-09-20 05:01:00,
2013-09-20 01:16:00,54.7,54.1,29.98,ESE,112,0.0,-999.0,98,-99.99,,,0.00,Acu-Link.com,2013-09-20 05:16:00,
2013-09-20 01:32:00,54.3,53.7,29.99,WSW,247,0.0,-999.0,98,-99.99,,,0.00,Acu-Link.com,2013-09-20 05:32:00,
2013-09-20 01:47:00,55.8,55.2,29.98,ESE,112,1.7,-999.0,98,-99.99,,,0.00,Acu-Link.com,2013-09-20 05:47:00,
2013-09-20 02:02:00,55.0,54.4,29.98,NNE,22,0.0,-999.0,98,-99.99,,,0.00,Acu-Link.com,2013-09-20 06:02:00,
2013-09-20 02:17:00,55.0,54.4,29.98,ESE,112,0.0,-999.0,98,-99.99,,,0.00,Acu-Link.com,2013-09-20 06:17:00,
2013-09-20 02:33:00,54.9,54.3,29.97,ESE,112,0.0,-999.0,98,-99.99,,,0.00,Acu-Link.com,2013-09-20 06:33:00,
2013-09-20 02:48:00,53.8,53.2,29.97,NNE,22,0.0,-999.0,98,-99.99,,,0.00,Acu-Link.com,2013-09-20 06:48:00,
2013-09-20 03:03:00,54.7,54.1,29.97,ESE,112,0.0,-999.0,98,-99.99,,,0.00,Acu-Link.com,2013-09-20 07:03:00,
2013-09-20 03:18:00,54.7,54.1,29.96,ESE,112,1.7,-999.0,98,-99.99,,,0.00,Acu-Link.com,2013-09-20 07:18:00,
2013-09-20 03:33:00,53.8,53.2,29.97,East,90,0.0,-999.0,98,-99.99,,,0.00,Acu-Link.com,2013-09-20 07:33:00,
2013-09-20 03:49:00,53.6,53.0,29.97,East,90,0.0,-999.0,98,-99.99,,,0.00,Acu-Link.com,2013-09-20 07:49:00,
2013-09-20 04:04:00,53.6,53.0,29.97,ESE,112,0.0,-999.0,98,-99.99,,,0.00,Acu-Link.com,2013-09-20 08:04:00,
2013-09-20 04:19:00,53.6,53.0,29.97,SE,135,0.0,-999.0,98,-99.99,,,0.00,Acu-Link.com,2013-09-20 08:19:00,
2013-09-20 04:36:00,53.4,52.8,29.97,SE,135,0.0,-999.0,98,-99.99,,,0.00,Acu-Link.com,2013-09-20 08:36:00,
2013-09-20 04:51:00,53.1,52.5,29.97,ESE,112,0.0,-999.0,98,-99.99,,,0.00,Acu-Link.com,2013-09-20 08:51:00,
2013-09-20 05:06:00,52.3,51.8,29.97,ENE,67,0.0,-999.0,98,-99.99,,,0.00,Acu-Link.com,2013-09-20 09:06:00,
2013-09-20 05:21:00,52.5,52.0,29.97,NE,45,0.0,-999.0,98,-99.99,,,0.00,Acu-Link.com,2013-09-20 09:21:00,
2013-09-20 05:36:00,52.3,51.8,29.97,SSW,202,0.0,-999.0,98,-99.99,,,0.00,Acu-Link.com,2013-09-20 09:36:00,
2013-09-20 05:51:00,50.4,49.9,29.98,WNW,292,0.0,-999.0,98,-99.99,,,0.00,Acu-Link.com,2013-09-20 09:51:00,
2013-09-20 06:07:00,51.4,50.9,29.97,NNE,22,0.0,-999.0,98,-99.99,,,0.00,Acu-Link.com,2013-09-20 10:07:00,
2013-09-20 06:22:00,50.9,50.4,29.97,NNW,337,0.0,-999.0,98,-99.99,,,0.00,Acu-Link.com,2013-09-20 10:22:00,
2013-09-20 06:37:00,52.3,51.8,29.97,ESE,112,1.7,-999.0,98,-99.99,,,0.00,Acu-Link.com,2013-09-20 10:37:00,
2013-09-20 06:52:00,52.7,52.2,29.97,SE,135,0.0,-999.0,98,-99.99,,,0.00,Acu-Link.com,2013-09-20 10:52:00,
2013-09-20 07:08:00,52.2,51.7,29.98,ESE,112,0.0,-999.0,98,-99.99,,,0.00,Acu-Link.com,2013-09-20 11:08:00,
2013-09-20 07:23:00,52.2,51.7,29.97,NE,45,0.0,-999.0,98,-99.99,,,0.00,Acu-Link.com,2013-09-20 11:23:00,
2013-09-20 07:38:00,52.3,51.8,29.97,South,180,0.0,-999.0,98,-99.99,,,0.00,Acu-Link.com,2013-09-20 11:38:00,
2013-09-20 07:53:00,53.2,52.6,29.97,SW,225,0.0,-999.0,98,-99.99,,,0.00,Acu-Link.com,2013-09-20 11:53:00,
2013-09-20 08:08:00,54.7,54.1,29.97,SSW,202,0.0,-999.0,98,-99.99,,,0.00,Acu-Link.com,2013-09-20 12:08:00,
2013-09-20 08:24:00,56.8,56.2,29.98,West,270,1.1,-999.0,98,-99.99,,,0.00,Acu-Link.com,2013-09-20 12:24:00,
2013-09-20 08:39:00,60.3,59.7,29.97,SSE,157,0.0,-999.0,98,-99.99,,,0.00,Acu-Link.com,2013-09-20 12:39:00,
2013-09-20 08:54:00,62.1,61.5,29.97,West,270,2.7,-999.0,98,-99.99,,,0.00,Acu-Link.com,2013-09-20 12:54:00,
2013-09-20 09:09:00,63.5,62.9,29.97,WSW,247,2.7,-999.0,98,-99.99,,,0.00,Acu-Link.com,2013-09-20 13:09:00,
2013-09-20 09:24:00,65.7,65.1,29.97,West,270,3.7,-999.0,98,-99.99,,,0.00,Acu-Link.com,2013-09-20 13:24:00,
2013-09-20 09:40:00,67.3,66.7,29.97,SW,225,2.7,-999.0,98,-99.99,,,0.00,Acu-Link.com,2013-09-20 13:40:00,
2013-09-20 09:55:00,69.1,68.5,29.97,SSE,157,2.7,-999.0,98,-99.99,,,0.00,Acu-Link.com,2013-09-20 13:55:00,
2013-09-20 10:10:00,69.3,68.7,29.97,SW,225,3.2,-999.0,98,-99.99,,,0.00,Acu-Link.com,2013-09-20 14:10:00,
2013-09-20 10:25:00,70.5,69.9,29.98,SSE,157,4.2,-999.0,98,-99.99,,,0.00,Acu-Link.com,2013-09-20 14:25:00,
2013-09-20 10:40:00,73.2,72.6,29.96,SSW,202,4.7,-999.0,98,-99.99,,,0.00,Acu-Link.com,2013-09-20 14:40:00,
2013-09-20 10:56:00,72.3,71.7,29.96,SE,135,10.4,-999.0,98,-99.99,,,0.00,Acu-Link.com,2013-09-20 14:56:00,
2013-09-20 11:11:00,72.3,71.7,29.96,SSW,202,3.2,-999.0,98,-99.99,,,0.00,Acu-Link.com,2013-09-20 15:11:00,
2013-09-20 11:26:00,72.7,72.1,29.96,South,180,7.8,-999.0,98,-99.99,,,0.00,Acu-Link.com,2013-09-20 15:26:00,
2013-09-20 11:41:00,74.8,74.2,29.95,WSW,247,5.8,-999.0,98,-99.99,,,0.00,Acu-Link.com,2013-09-20 15:41:00,
2013-09-20 11:57:00,75.9,75.3,29.96,SSE,157,8.9,-999.0,98,-99.99,,,0.00,Acu-Link.com,2013-09-20 15:57:00,
2013-09-20 12:12:00,74.5,73.9,29.95,SSE,157,9.4,-999.0,98,-99.99,,,0.00,Acu-Link.com,2013-09-20 16:12:00,
2013-09-20 12:27:00,76.3,75.7,29.95,SE,135,15.5,-999.0,98,-99.99,,,0.00,Acu-Link.com,2013-09-20 16:27:00,
2013-09-20 12:42:00,74.7,74.1,29.94,SE,135,3.2,-999.0,98,-99.99,,,0.00,Acu-Link.com,2013-09-20 16:42:00,
2013-09-20 12:58:00,76.3,75.7,29.94,SE,135,5.3,-999.0,98,-99.99,,,0.00,Acu-Link.com,2013-09-20 16:58:00,
2013-09-20 13:13:00,78.8,78.2,29.94,SSW,202,2.2,-999.0,98,-99.99,,,0.00,Acu-Link.com,2013-09-20 17:13:00,
2013-09-20 13:28:00,77.5,76.9,29.93,SSW,202,6.3,-999.0,98,-99.99,,,0.00,Acu-Link.com,2013-09-20 17:28:00,
2013-09-20 13:43:00,76.5,75.9,29.92,WSW,247,3.7,-999.0,98,-99.99,,,0.00,Acu-Link.com,2013-09-20 17:43:00,
2013-09-20 13:59:00,78.1,77.5,29.91,SSW,202,4.2,-999.0,98,-99.99,,,0.00,Acu-Link.com,2013-09-20 17:59:00,
2013-09-20 14:14:00,79.3,78.7,29.91,SSW,202,7.3,-999.0,98,-99.99,,,0.00,Acu-Link.com,2013-09-20 18:14:00,
2013-09-20 14:29:00,79.0,78.4,29.91,South,180,1.1,-999.0,98,-99.99,,,0.00,Acu-Link.com,2013-09-20 18:29:00,
2013-09-20 14:44:00,79.5,74.6,29.91,West,270,3.7,-999.0,85,-99.99,,,0.00,Acu-Link.com,2013-09-20 18:44:00,
2013-09-20 15:00:00,76.6,76.0,29.90,SE,135,2.2,-999.0,98,-99.99,,,0.00,Acu-Link.com,2013-09-20 19:00:00,
2013-09-20 15:15:00,79.7,71.4,29.90,SSW,202,4.7,-999.0,76,-99.99,,,0.00,Acu-Link.com,2013-09-20 19:15:00,
2013-09-20 15:30:00,80.1,72.6,29.90,WSW,247,1.7,-999.0,78,-99.99,,,0.00,Acu-Link.com,2013-09-20 19:30:00,
2013-09-20 15:45:00,77.9,72.7,29.89,South,180,4.2,-999.0,84,-99.99,,,0.00,Acu-Link.com,2013-09-20 19:45:00,
2013-09-20 16:01:00,77.5,73.7,29.90,SSW,202,2.7,-999.0,88,-99.99,,,0.00,Acu-Link.com,2013-09-20 20:01:00,
2013-09-20 16:16:00,78.1,73.9,29.88,South,180,4.7,-999.0,87,-99.99,,,0.00,Acu-Link.com,2013-09-20 20:16:00,
2013-09-20 16:31:00,79.3,69.9,29.88,SW,225,3.2,-999.0,73,-99.99,,,0.00,Acu-Link.com,2013-09-20 20:31:00,
2013-09-20 16:46:00,78.1,70.7,29.87,SSW,202,5.8,-999.0,78,-99.99,,,0.00,Acu-Link.com,2013-09-20 20:46:00,
2013-09-20 17:02:00,78.6,72.3,29.88,West,270,1.1,-999.0,81,-99.99,,,0.00,Acu-Link.com,2013-09-20 21:02:00,
2013-09-20 17:17:00,79.0,71.5,29.86,SSW,202,5.3,-999.0,78,-99.99,,,0.00,Acu-Link.com,2013-09-20 21:17:00,
2013-09-20 17:32:00,78.4,72.1,29.85,WSW,247,4.2,-999.0,81,-99.99,,,0.00,Acu-Link.com,2013-09-20 21:32:00,
2013-09-20 17:47:00,76.3,75.7,29.85,SSW,202,8.3,-999.0,98,-99.99,,,0.00,Acu-Link.com,2013-09-20 21:47:00,
2013-09-20 18:02:00,75.6,75.0,29.86,SSE,157,1.7,-999.0,98,-99.99,,,0.00,Acu-Link.com,2013-09-20 22:02:00,
2013-09-20 18:18:00,75.0,74.4,29.86,SSW,202,4.2,-999.0,98,-99.99,,,0.00,Acu-Link.com,2013-09-20 22:18:00,
2013-09-20 18:33:00,73.0,72.4,29.85,SE,135,4.7,-999.0,98,-99.99,,,0.00,Acu-Link.com,2013-09-20 22:33:00,
2013-09-20 18:48:00,71.4,70.8,29.85,SE,135,4.2,-999.0,98,-99.99,,,0.00,Acu-Link.com,2013-09-20 22:48:00,
2013-09-20 19:03:00,70.2,69.6,29.85,South,180,6.3,-999.0,98,-99.99,,,0.00,Acu-Link.com,2013-09-20 23:03:00,
2013-09-20 19:19:00,69.6,69.0,29.86,SSE,157,4.7,-999.0,98,-99.99,,,0.00,Acu-Link.com,2013-09-20 23:19:00,
2013-09-20 19:34:00,68.7,68.1,29.86,SSE,157,6.8,-999.0,98,-99.99,,,0.00,Acu-Link.com,2013-09-20 23:34:00,
2013-09-20 19:49:00,67.8,67.2,29.86,SE,135,2.7,-999.0,98,-99.99,,,0.00,Acu-Link.com,2013-09-20 23:49:00,
2013-09-20 20:04:00,67.5,66.9,29.86,SE,135,4.7,-999.0,98,-99.99,,,0.00,Acu-Link.com,2013-09-21 00:04:00,
2013-09-20 20:19:00,67.1,66.5,29.86,SSE,157,5.8,-999.0,98,-99.99,,,0.00,Acu-Link.com,2013-09-21 00:19:00,
2013-09-20 20:35:00,66.0,65.4,29.87,SSE,157,3.7,-999.0,98,-99.99,,,0.00,Acu-Link.com,2013-09-21 00:35:00,
2013-09-20 20:50:00,66.2,65.6,29.88,SSE,157,5.8,-999.0,98,-99.99,,,0.00,Acu-Link.com,2013-09-21 00:50:00,
2013-09-20 21:05:00,65.7,65.1,29.87,SSE,157,4.7,-999.0,98,-99.99,,,0.00,Acu-Link.com,2013-09-21 01:05:00,
2013-09-20 21:20:00,65.1,64.5,29.88,SE,135,1.1,-999.0,98,-99.99,,,0.00,Acu-Link.com,2013-09-21 01:20:00,
2013-09-20 21:35:00,64.8,64.2,29.87,SSE,157,2.7,-999.0,98,-99.99,,,0.00,Acu-Link.com,2013-09-21 01:35:00,
2013-09-20 21:51:00,63.9,63.3,29.88,SE,135,2.7,-999.0,98,-99.99,,,0.00,Acu-Link.com,2013-09-21 01:51:00,
2013-09-20 22:06:00,63.9,63.3,29.87,SE,135,3.7,-999.0,98,-99.99,,,0.00,Acu-Link.com,2013-09-21 02:06:00,
2013-09-20 22:21:00,63.5,62.9,29.88,ESE,112,2.7,-999.0,98,-99.99,,,0.00,Acu-Link.com,2013-09-21 02:21:00,
2013-09-20 22:36:00,63.1,62.5,29.87,SE,135,2.7,-999.0,98,-99.99,,,0.00,Acu-Link.com,2013-09-21 02:36:00,
2013-09-20 22:51:00,62.6,62.0,29.88,SE,135,2.2,-999.0,98,-99.99,,,0.00,Acu-Link.com,2013-09-21 02:51:00,
2013-09-20 23:07:00,62.4,61.8,29.87,SE,135,2.7,-999.0,98,-99.99,,,0.00,Acu-Link.com,2013-09-21 03:07:00,
2013-09-20 23:22:00,62.2,61.6,29.87,SE,135,2.7,-999.0,98,-99.99,,,0.00,Acu-Link.com,2013-09-21 03:22:00,
2013-09-20 23:37:00,61.9,61.3,29.86,SE,135,3.2,-999.0,98,-99.99,,,0.00,Acu-Link.com,2013-09-21 03:37:00,
2013-09-20 23:52:00,61.9,61.3,29.87,SE,135,2.2,-999.0,98,-99.99,,,0.00,Acu-Link.com,2013-09-21 03:52:00,